Gosnell, Arkansas
Current Conditions -  °F | °C
As of 10:53 AM on Thursday 30 Oct 2014 (Local Time) from KHKA Reporting Station
Clear Clear  
Wind Chill: 61°   Ceiling: Unl
Heat Index: 61°   Visibility: 10mi
Dew Point: 41°   Wind: 6mph
Humidity: 48%   Direction: 160°SSE
Pressure: 30.17"   Gusts: NA
Location:  35.96°N, 89.97°W
Report Text: KHKA 301553Z AUTO 16005KT 10SM CLR 16/05 A3017 RMK AO2 SLP215 T01610050
Loading
Personal Weather Stations






























Interactive Weather Map
Tropical Storm Tracking
New forecast layout! Learn more

10-Day Weather Forecast

Advertisements
Track Severe Weather on mobile